createdAt,value
2018-03-23T00:00:18.163Z,78.60
2018-03-23T00:02:01.294Z,78.50
2018-03-23T00:03:44.443Z,78.70
2018-03-23T00:05:28.337Z,78.70
2018-03-23T00:07:11.481Z,78.80
2018-03-23T00:08:54.845Z,78.80
2018-03-23T00:10:37.951Z,78.80
2018-03-23T00:12:21.087Z,78.90
2018-03-23T00:14:04.236Z,78.90
2018-03-23T00:15:47.449Z,79.00
2018-03-23T00:17:30.560Z,79.10
2018-03-23T00:19:13.828Z,79.20
2018-03-23T00:20:57.006Z,79.30
2018-03-23T00:22:40.273Z,78.90
2018-03-23T00:24:23.486Z,79.30
2018-03-23T00:26:06.666Z,79.10
2018-03-23T00:27:49.785Z,79.20
2018-03-23T00:29:32.915Z,79.30
2018-03-23T00:31:16.044Z,79.30
2018-03-23T00:32:59.923Z,79.30
2018-03-23T00:34:43.130Z,79.30
2018-03-23T00:36:26.265Z,79.40
2018-03-23T00:38:09.386Z,79.20
2018-03-23T00:39:52.531Z,79.30
2018-03-23T00:41:35.654Z,79.40
2018-03-23T00:43:19.560Z,79.40
2018-03-23T00:45:02.781Z,79.30
2018-03-23T00:46:45.919Z,79.40
2018-03-23T00:48:29.808Z,79.40
2018-03-23T00:50:12.972Z,79.30
2018-03-23T00:51:56.876Z,79.60
2018-03-23T00:53:39.994Z,79.40
2018-03-23T00:55:23.121Z,79.60
2018-03-23T00:57:06.234Z,79.60
2018-03-23T00:58:49.478Z,79.60
2018-03-23T01:00:33.383Z,79.70
2018-03-23T01:02:16.516Z,79.60
2018-03-23T01:04:00.407Z,79.20
2018-03-23T01:05:43.545Z,79.20
2018-03-23T01:07:26.672Z,78.90
2018-03-23T01:09:09.789Z,79.00
2018-03-23T01:10:52.912Z,78.80
2018-03-23T01:12:37.549Z,78.80
2018-03-23T01:14:20.703Z,78.70
2018-03-23T01:16:04.609Z,78.70
2018-03-23T01:17:47.717Z,78.70
2018-03-23T01:19:30.836Z,78.70
2018-03-23T01:21:13.965Z,78.60
2018-03-23T01:22:57.173Z,78.40
2018-03-23T01:24:41.948Z,78.20
2018-03-23T01:26:25.059Z,78.20
2018-03-23T01:28:08.255Z,78.20
2018-03-23T01:29:51.387Z,78.10
2018-03-23T01:31:34.521Z,78.10
2018-03-23T01:33:18.424Z,78.10
2018-03-23T01:35:01.657Z,78.10
2018-03-23T01:36:44.777Z,78.10
2018-03-23T01:38:27.913Z,78.00
2018-03-23T01:40:11.813Z,78.00
2018-03-23T01:41:54.994Z,78.00
2018-03-23T01:43:38.149Z,77.90
2018-03-23T01:45:21.461Z,77.90
2018-03-23T01:47:04.586Z,77.80
2018-03-23T01:48:47.696Z,77.70
2018-03-23T01:50:30.840Z,77.60
2018-03-23T01:52:14.728Z,77.50
2018-03-23T01:53:57.893Z,77.50
2018-03-23T01:55:41.827Z,76.90
2018-03-23T01:57:24.927Z,77.40
2018-03-23T01:59:08.764Z,77.30
2018-03-23T02:00:51.982Z,77.40
2018-03-23T02:02:35.202Z,77.50
2018-03-23T02:04:18.319Z,77.40
2018-03-23T02:06:01.544Z,77.40
2018-03-23T02:07:44.758Z,77.50
2018-03-23T02:09:28.089Z,77.30
2018-03-23T02:11:11.214Z,77.40
2018-03-23T02:12:55.350Z,77.50
2018-03-23T02:14:38.667Z,77.50
2018-03-23T02:16:21.996Z,77.40
2018-03-23T02:18:05.380Z,77.40
2018-03-23T02:19:49.285Z,78.10
2018-03-23T02:21:32.520Z,77.50
2018-03-23T02:23:16.379Z,77.40
2018-03-23T02:24:59.480Z,77.40
2018-03-23T02:26:42.612Z,77.50
2018-03-23T02:28:25.721Z,77.60
2018-03-23T02:30:08.836Z,77.50
2018-03-23T02:31:51.990Z,77.40
2018-03-23T02:33:35.932Z,77.40
2018-03-23T02:35:19.826Z,77.30
2018-03-23T02:37:02.957Z,77.30
2018-03-23T02:38:46.082Z,77.30
2018-03-23T02:40:29.992Z,78.00
2018-03-23T02:42:13.443Z,77.20
2018-03-23T02:43:56.587Z,77.10
2018-03-23T02:45:39.703Z,77.10
2018-03-23T02:47:22.827Z,77.10
2018-03-23T02:49:05.944Z,77.00
2018-03-23T02:50:49.065Z,76.90
2018-03-23T02:52:32.189Z,76.90
2018-03-23T02:54:15.297Z,77.10
2018-03-23T02:55:58.463Z,77.00
2018-03-23T02:57:41.605Z,77.10
2018-03-23T02:59:25.518Z,77.00
2018-03-23T03:01:08.634Z,76.90
2018-03-23T03:02:51.845Z,77.00
2018-03-23T03:04:34.959Z,76.90
2018-03-23T03:06:18.187Z,76.80
2018-03-23T03:08:01.386Z,76.70
2018-03-23T03:09:44.604Z,77.50
2018-03-23T03:11:27.753Z,76.50
2018-03-23T03:13:11.692Z,76.40
2018-03-23T03:14:54.873Z,76.40
2018-03-23T03:16:38.004Z,76.40
2018-03-23T03:18:21.114Z,76.30
2018-03-23T03:20:04.229Z,76.30
2018-03-23T03:21:47.440Z,76.20
2018-03-23T03:23:30.560Z,76.20
2018-03-23T03:25:13.708Z,76.00
2018-03-23T03:26:57.619Z,75.80
2018-03-23T03:28:41.010Z,75.70
2018-03-23T03:30:24.152Z,75.80
2018-03-23T03:32:07.286Z,75.80
2018-03-23T03:33:51.186Z,75.60
2018-03-23T03:35:34.300Z,75.70
2018-03-23T03:37:17.447Z,75.70
2018-03-23T03:39:00.557Z,75.60
2018-03-23T03:40:44.440Z,75.00
2018-03-23T03:42:27.582Z,75.40
2018-03-23T03:44:10.697Z,75.30
2018-03-23T03:45:53.816Z,75.30
2018-03-23T03:47:36.939Z,75.30
2018-03-23T03:49:20.193Z,75.30
2018-03-23T03:51:03.307Z,75.30
2018-03-23T03:52:46.440Z,75.70
2018-03-23T03:54:30.343Z,75.30
2018-03-23T03:56:13.560Z,75.30
2018-03-23T03:57:56.697Z,75.50
2018-03-23T03:59:39.926Z,75.50
2018-03-23T04:01:23.120Z,75.60
2018-03-23T04:03:06.249Z,75.30
2018-03-23T04:04:49.378Z,75.30
2018-03-23T04:06:32.600Z,75.30
2018-03-23T04:08:16.509Z,75.30
2018-03-23T04:09:59.620Z,75.30
2018-03-23T04:11:42.728Z,75.30
2018-03-23T04:13:25.843Z,75.20
2018-03-23T04:15:08.963Z,75.50
2018-03-23T04:16:52.068Z,75.50
2018-03-23T04:18:35.218Z,75.30
2018-03-23T04:20:18.424Z,75.30
2018-03-23T04:22:01.557Z,75.30
2018-03-23T04:23:45.470Z,75.30
2018-03-23T04:25:28.613Z,75.40
2018-03-23T04:27:12.479Z,75.20
2018-03-23T04:28:55.655Z,75.20
2018-03-23T04:30:38.757Z,75.80
2018-03-23T04:32:21.899Z,74.90
2018-03-23T04:34:05.799Z,74.90
2018-03-23T04:35:48.908Z,74.90
2018-03-23T04:37:32.031Z,74.80
2018-03-23T04:39:15.149Z,74.70
2018-03-23T04:40:58.263Z,74.70
2018-03-23T04:42:41.387Z,74.60
2018-03-23T04:44:24.537Z,74.40
2018-03-23T04:46:08.441Z,74.30
2018-03-23T04:47:51.568Z,74.30
2018-03-23T04:49:34.795Z,74.30
2018-03-23T04:51:18.673Z,74.00
2018-03-23T04:53:01.794Z,74.00
2018-03-23T04:54:44.925Z,73.90
2018-03-23T04:56:28.064Z,73.90
2018-03-23T04:58:11.299Z,74.70
2018-03-23T04:59:55.438Z,73.90
2018-03-23T05:01:38.559Z,73.90
2018-03-23T05:03:22.459Z,73.80
2018-03-23T05:05:05.661Z,73.80
2018-03-23T05:06:48.800Z,73.80
2018-03-23T05:08:32.058Z,73.70
2018-03-23T05:10:15.932Z,73.60
2018-03-23T05:11:59.054Z,73.60
2018-03-23T05:13:42.257Z,73.80
2018-03-23T05:15:25.366Z,73.80
2018-03-23T05:17:08.521Z,73.70
2018-03-23T05:18:51.754Z,73.80
2018-03-23T05:20:34.937Z,73.90
2018-03-23T05:22:18.180Z,73.80
2018-03-23T05:24:01.312Z,73.70
2018-03-23T05:25:45.203Z,73.60
2018-03-23T05:27:28.352Z,73.50
2018-03-23T05:29:11.502Z,73.60
2018-03-23T05:30:55.403Z,73.60
2018-03-23T05:32:38.506Z,73.60
2018-03-23T05:34:21.648Z,73.50
2018-03-23T05:36:04.805Z,73.60
2018-03-23T05:37:47.958Z,73.70
2018-03-23T05:39:31.091Z,73.50
2018-03-23T05:41:14.214Z,73.50
2018-03-23T05:42:57.329Z,73.60
2018-03-23T05:44:40.453Z,73.70
2018-03-23T05:46:24.346Z,73.70
2018-03-23T05:48:07.478Z,73.70
2018-03-23T05:49:50.601Z,73.60
2018-03-23T05:51:33.789Z,73.50
2018-03-23T05:53:16.934Z,74.20
2018-03-23T05:55:00.046Z,73.30
2018-03-23T05:56:58.817Z,73.30
2018-03-23T05:58:41.961Z,73.30
2018-03-23T06:00:25.064Z,73.30
2018-03-23T06:02:08.204Z,73.30
2018-03-23T06:03:52.139Z,73.00
2018-03-23T06:05:36.055Z,72.90
2018-03-23T06:07:19.187Z,72.80
2018-03-23T06:09:03.139Z,73.40
2018-03-23T06:10:47.036Z,72.50
2018-03-23T06:12:30.140Z,72.40
2018-03-23T06:14:13.285Z,72.10
2018-03-23T06:15:56.511Z,72.00
2018-03-23T06:17:40.464Z,72.50
2018-03-23T06:19:23.659Z,71.70
2018-03-23T06:21:06.772Z,71.60
2018-03-23T06:22:49.895Z,71.30
2018-03-23T06:24:33.892Z,70.90
2018-03-23T06:26:17.149Z,70.70
2018-03-23T06:28:01.061Z,71.60
2018-03-23T06:29:44.189Z,70.60
2018-03-23T06:31:27.384Z,70.30
2018-03-23T06:33:10.562Z,70.30
2018-03-23T06:34:53.755Z,70.40
2018-03-23T06:36:36.872Z,70.40
2018-03-23T06:38:20.785Z,70.20
2018-03-23T06:40:03.916Z,70.10
2018-03-23T06:41:47.039Z,70.00
2018-03-23T06:43:30.974Z,69.50
2018-03-23T06:45:14.895Z,69.40
2018-03-23T06:46:58.012Z,69.40
2018-03-23T06:48:41.230Z,69.20
2018-03-23T06:50:24.367Z,69.00
2018-03-23T06:52:08.273Z,69.00
2018-03-23T06:53:51.415Z,68.80
2018-03-23T06:55:35.327Z,68.70
2018-03-23T06:57:18.465Z,68.80
2018-03-23T06:59:02.384Z,68.40
2018-03-23T07:00:45.537Z,68.20
2018-03-23T07:02:28.717Z,68.80
2018-03-23T07:04:11.856Z,67.80
2018-03-23T07:05:55.731Z,67.30
2018-03-23T07:07:38.899Z,67.20
2018-03-23T07:09:22.837Z,67.20
2018-03-23T07:11:06.723Z,67.00
2018-03-23T07:12:49.883Z,66.80
2018-03-23T07:14:33.089Z,66.40
2018-03-23T07:16:16.196Z,66.40
2018-03-23T07:17:59.315Z,65.90
2018-03-23T07:19:42.628Z,65.50
2018-03-23T07:21:25.735Z,65.60
2018-03-23T07:23:08.853Z,65.00
2018-03-23T07:24:51.993Z,64.80
2018-03-23T07:26:35.133Z,64.50
2018-03-23T07:28:19.031Z,64.10
2018-03-23T07:30:02.169Z,64.00
2018-03-23T07:31:45.316Z,64.10
2018-03-23T07:33:28.566Z,63.90
2018-03-23T07:35:11.705Z,64.10
2018-03-23T07:36:54.839Z,63.70
2018-03-23T07:38:38.777Z,63.90
2018-03-23T07:40:21.936Z,63.20
2018-03-23T07:42:05.069Z,62.80
2018-03-23T07:43:48.199Z,62.70
2018-03-23T07:45:31.329Z,62.50
2018-03-23T07:47:14.561Z,63.10
2018-03-23T07:48:59.190Z,61.80
2018-03-23T07:50:42.319Z,61.70
2018-03-23T07:52:25.454Z,61.60
2018-03-23T07:54:09.447Z,61.30
2018-03-23T07:55:52.730Z,62.00
2018-03-23T07:57:35.909Z,60.70
2018-03-23T07:59:19.124Z,60.60
2018-03-23T08:01:02.258Z,60.40
2018-03-23T08:02:46.194Z,60.50
2018-03-23T08:04:30.092Z,60.50
2018-03-23T08:06:13.247Z,60.40
2018-03-23T08:07:57.297Z,60.40
2018-03-23T08:09:41.189Z,60.20
2018-03-23T08:11:24.334Z,60.10
2018-03-23T08:13:07.578Z,60.20
2018-03-23T08:14:51.492Z,60.10
2018-03-23T08:16:35.376Z,60.80
2018-03-23T08:18:18.492Z,60.00
2018-03-23T08:20:01.652Z,60.00
2018-03-23T08:21:45.553Z,60.00
2018-03-23T08:23:28.676Z,60.00
2018-03-23T08:25:11.823Z,60.00
2018-03-23T08:26:55.150Z,60.00
2018-03-23T08:28:39.052Z,59.40
2018-03-23T08:30:22.208Z,59.40
2018-03-23T08:32:06.187Z,59.10
2018-03-23T08:33:49.317Z,59.00
2018-03-23T08:35:32.476Z,59.00
2018-03-23T08:37:16.392Z,58.90
2018-03-23T08:38:59.537Z,58.90
2018-03-23T08:40:43.454Z,59.30
2018-03-23T08:42:27.369Z,59.50
2018-03-23T08:44:10.528Z,59.40
2018-03-23T08:45:53.657Z,59.30
2018-03-23T08:47:36.814Z,59.30
2018-03-23T08:49:19.925Z,59.30
2018-03-23T08:51:04.114Z,59.40
2018-03-23T08:52:47.297Z,59.30
2018-03-23T08:54:30.420Z,59.30
2018-03-23T08:56:13.652Z,59.00
2018-03-23T08:57:57.524Z,59.20
2018-03-23T08:59:40.684Z,59.10
2018-03-23T09:01:23.929Z,59.00
2018-03-23T09:03:07.886Z,58.80
2018-03-23T09:04:51.010Z,58.60
2018-03-23T09:06:34.204Z,58.70
2018-03-23T09:08:17.344Z,58.60
2018-03-23T09:10:00.496Z,58.60
2018-03-23T09:11:43.804Z,58.70
2018-03-23T09:13:26.956Z,58.90
2018-03-23T09:15:10.156Z,59.20
2018-03-23T09:16:54.088Z,59.40
2018-03-23T09:18:37.243Z,59.40
2018-03-23T09:20:21.165Z,60.00
2018-03-23T09:22:04.287Z,60.00
2018-03-23T09:23:47.413Z,60.10
2018-03-23T09:25:31.351Z,60.10
2018-03-23T09:27:15.238Z,60.00
2018-03-23T09:28:58.343Z,60.00
2018-03-23T09:30:41.503Z,60.10
2018-03-23T09:32:25.403Z,59.70
2018-03-23T09:34:08.558Z,59.70
2018-03-23T09:35:52.477Z,59.40
2018-03-23T09:37:35.591Z,59.40
2018-03-23T09:39:18.757Z,59.10
2018-03-23T09:41:01.941Z,58.80
2018-03-23T09:42:45.169Z,58.50
2018-03-23T09:44:29.093Z,58.80
2018-03-23T09:46:13.024Z,58.70
2018-03-23T09:47:56.128Z,58.60
2018-03-23T09:49:39.256Z,59.00
2018-03-23T09:51:22.376Z,58.60
2018-03-23T09:53:06.252Z,59.00
2018-03-23T09:54:49.423Z,59.00
2018-03-23T09:56:32.575Z,58.90
2018-03-23T09:58:15.710Z,58.80
2018-03-23T09:59:58.870Z,58.80
2018-03-23T10:01:42.002Z,59.00
2018-03-23T10:03:25.942Z,59.10
2018-03-23T10:05:09.855Z,59.20
2018-03-23T10:06:52.991Z,59.20
2018-03-23T10:08:36.969Z,58.90
2018-03-23T10:10:20.400Z,59.50
2018-03-23T10:12:03.621Z,58.80
2018-03-23T10:13:47.210Z,58.80
2018-03-23T10:15:30.511Z,58.70
2018-03-23T10:17:14.466Z,58.70
2018-03-23T10:18:58.365Z,58.70
2018-03-23T10:20:41.531Z,58.70
2018-03-23T10:22:25.397Z,59.20
2018-03-23T10:24:08.743Z,59.20
2018-03-23T10:25:51.874Z,58.90
2018-03-23T10:27:35.773Z,60.00
2018-03-23T10:29:19.630Z,59.20
2018-03-23T10:31:02.740Z,58.90
2018-03-23T10:32:45.960Z,58.70
2018-03-23T10:34:29.093Z,58.40
2018-03-23T10:36:12.993Z,58.70
2018-03-23T10:37:56.139Z,58.60
2018-03-23T10:39:40.056Z,58.20
2018-03-23T10:41:23.193Z,58.20
2018-03-23T10:43:07.123Z,57.60
2018-03-23T10:44:50.448Z,57.50
2018-03-23T10:46:34.324Z,57.10
2018-03-23T10:48:17.485Z,56.40
2018-03-23T10:50:00.605Z,56.30
2018-03-23T10:51:43.748Z,56.40
2018-03-23T10:53:27.683Z,57.00
2018-03-23T10:55:16.385Z,57.60
2018-03-23T10:56:59.640Z,57.60
2018-03-23T10:58:43.525Z,57.90
2018-03-23T11:00:32.192Z,57.90
2018-03-23T11:04:35.306Z,56.50
2018-03-23T11:06:18.441Z,55.70
2018-03-23T11:08:02.347Z,53.80
2018-03-23T11:09:45.658Z,53.80
2018-03-23T11:11:28.783Z,52.90
2018-03-23T11:13:11.935Z,52.90
2018-03-23T11:14:55.818Z,52.50
2018-03-23T11:16:38.940Z,52.50
2018-03-23T11:18:22.065Z,53.20
2018-03-23T11:20:05.213Z,53.80
2018-03-23T11:21:48.422Z,54.50
2018-03-23T11:23:31.626Z,54.80
2018-03-23T11:25:14.750Z,55.10
2018-03-23T11:26:57.951Z,54.50
2018-03-23T11:28:41.189Z,53.80
2018-03-23T11:30:24.297Z,53.20
2018-03-23T11:32:07.526Z,52.90
2018-03-23T11:33:50.743Z,52.60
2018-03-23T11:35:34.631Z,52.20
2018-03-23T11:37:17.741Z,52.10
2018-03-23T11:39:00.886Z,52.50
2018-03-23T11:40:44.100Z,52.50
2018-03-23T11:42:27.210Z,52.40
2018-03-23T11:44:10.378Z,52.80
2018-03-23T11:45:54.268Z,52.60
2018-03-23T11:47:37.536Z,52.60
2018-03-23T11:49:21.451Z,52.30
2018-03-23T11:51:05.329Z,53.10
2018-03-23T11:52:48.475Z,52.30
2018-03-23T11:54:31.606Z,52.40
2018-03-23T11:56:14.771Z,52.30
2018-03-23T11:57:58.063Z,52.30
2018-03-23T11:59:41.972Z,51.90
2018-03-23T12:01:25.188Z,51.90
2018-03-23T12:03:08.310Z,51.40
2018-03-23T12:04:51.425Z,51.00
2018-03-23T12:06:34.544Z,50.70
2018-03-23T12:08:19.208Z,50.20
2018-03-23T12:10:02.325Z,50.20
2018-03-23T12:11:45.472Z,49.90
2018-03-23T12:13:28.612Z,49.60
2018-03-23T12:15:11.781Z,49.60
2018-03-23T12:16:55.818Z,49.90
2018-03-23T12:18:39.717Z,50.00
2018-03-23T12:20:22.843Z,49.90
2018-03-23T12:22:05.975Z,49.80
2018-03-23T12:23:49.952Z,49.80
2018-03-23T12:25:33.093Z,49.80
2018-03-23T12:27:16.222Z,49.60
2018-03-23T12:28:59.377Z,49.30
2018-03-23T12:30:43.278Z,48.70
2018-03-23T12:32:26.424Z,48.70
2018-03-23T12:34:09.570Z,47.70
2018-03-23T12:35:52.754Z,48.30
2018-03-23T12:37:36.703Z,48.40
2018-03-23T12:39:20.627Z,49.20
2018-03-23T12:41:04.528Z,48.80
2018-03-23T12:42:47.790Z,48.70
2018-03-23T12:44:31.682Z,49.10
2018-03-23T12:46:14.803Z,49.10
2018-03-23T12:47:57.973Z,49.40
2018-03-23T12:49:41.876Z,49.90
2018-03-23T12:51:25.818Z,50.30
2018-03-23T12:53:09.035Z,50.20
2018-03-23T12:54:52.956Z,50.70
2018-03-23T12:56:36.102Z,50.60
2018-03-23T12:58:19.978Z,51.50
2018-03-23T13:00:03.141Z,51.50
2018-03-23T13:01:47.009Z,52.00
2018-03-23T13:03:30.163Z,52.00
2018-03-23T13:05:13.301Z,51.90
2018-03-23T13:06:57.230Z,51.90
2018-03-23T13:08:40.448Z,51.90
2018-03-23T13:10:24.369Z,52.20
2018-03-23T13:12:07.506Z,51.90
2018-03-23T13:13:50.693Z,52.00
2018-03-23T13:15:33.833Z,52.00
2018-03-23T13:17:16.952Z,52.10
2018-03-23T13:19:00.149Z,52.20
2018-03-23T13:20:43.308Z,51.20
2018-03-23T13:22:27.233Z,50.40
2018-03-23T13:24:11.862Z,50.10
2018-03-23T13:25:54.973Z,50.10
2018-03-23T13:27:38.125Z,49.80
2018-03-23T13:29:22.030Z,50.20
2018-03-23T13:31:05.158Z,50.20
2018-03-23T13:32:48.386Z,50.40
2018-03-23T13:34:32.310Z,50.80
2018-03-23T13:36:15.421Z,51.40
2018-03-23T13:37:58.557Z,51.20
2018-03-23T13:39:42.478Z,51.30
2018-03-23T13:41:26.436Z,51.90
2018-03-23T13:43:10.342Z,52.90
2018-03-23T13:44:53.506Z,52.90
2018-03-23T13:46:36.697Z,53.40
2018-03-23T13:48:20.595Z,54.30
2018-03-23T13:50:03.763Z,53.90
2018-03-23T13:51:47.668Z,54.00
2018-03-23T13:53:30.935Z,53.90
2018-03-23T13:55:14.228Z,54.30
2018-03-23T13:56:58.164Z,55.10
2018-03-23T13:58:47.580Z,54.90
2018-03-23T14:00:36.195Z,54.30
2018-03-23T14:02:19.323Z,54.00
2018-03-23T14:04:02.502Z,53.90
2018-03-23T14:05:46.393Z,54.70
2018-03-23T14:07:29.547Z,53.90
2018-03-23T14:09:12.844Z,53.80
2018-03-23T14:10:56.086Z,53.80
2018-03-23T14:12:39.209Z,54.00
2018-03-23T14:14:23.097Z,53.90
2018-03-23T14:16:06.211Z,53.90
2018-03-23T14:17:49.347Z,53.60
2018-03-23T14:19:32.493Z,53.40
2018-03-23T14:21:16.532Z,53.20
2018-03-23T14:23:00.468Z,53.00
2018-03-23T14:24:44.403Z,52.90
2018-03-23T14:26:28.305Z,53.20
2018-03-23T14:28:11.454Z,52.60
2018-03-23T14:29:54.557Z,52.40
2018-03-23T14:31:37.693Z,52.40
2018-03-23T14:33:21.687Z,53.40
2018-03-23T14:35:04.802Z,52.70
2018-03-23T14:36:48.054Z,52.90
2018-03-23T14:38:32.010Z,52.70
2018-03-23T14:40:16.031Z,52.60
2018-03-23T14:41:59.944Z,52.70
2018-03-23T14:43:43.209Z,52.60
2018-03-23T14:45:27.079Z,53.20
2018-03-23T14:47:10.226Z,53.20
2018-03-23T14:48:53.373Z,53.30
2018-03-23T14:50:37.252Z,53.60
2018-03-23T14:52:20.409Z,53.50
2018-03-23T14:54:04.335Z,54.70
2018-03-23T14:55:48.224Z,54.10
2018-03-23T14:57:31.357Z,54.10
2018-03-23T14:59:16.271Z,54.40
2018-03-23T15:01:00.163Z,54.80
2018-03-23T15:02:43.368Z,54.80
2018-03-23T15:04:26.484Z,55.00
2018-03-23T15:06:09.619Z,55.30
2018-03-23T15:07:52.855Z,55.20
2018-03-23T15:09:36.749Z,55.30
2018-03-23T15:11:19.914Z,55.10
2018-03-23T15:13:03.799Z,55.60
2018-03-23T15:14:46.958Z,55.60
2018-03-23T15:16:30.108Z,55.60
2018-03-23T15:18:13.294Z,55.70
2018-03-23T15:19:57.193Z,55.70
2018-03-23T15:21:40.358Z,55.70
2018-03-23T15:23:23.467Z,55.90
2018-03-23T15:25:07.342Z,56.10
2018-03-23T15:26:50.480Z,56.00
2018-03-23T15:28:33.629Z,55.80
2018-03-23T15:30:17.522Z,55.70
2018-03-23T15:32:00.678Z,55.60
2018-03-23T15:33:44.568Z,56.20
2018-03-23T15:35:27.686Z,56.10
2018-03-23T15:37:10.854Z,56.40
2018-03-23T15:38:54.769Z,56.60
2018-03-23T15:40:37.980Z,56.40
2018-03-23T15:42:21.719Z,56.60
2018-03-23T15:44:04.958Z,56.80
2018-03-23T15:45:48.098Z,57.00
2018-03-23T15:47:32.363Z,57.10
2018-03-23T15:49:15.520Z,57.20
2018-03-23T15:50:58.640Z,57.30
2018-03-23T15:52:41.854Z,57.40
2018-03-23T15:54:24.966Z,57.70
2018-03-23T15:56:08.190Z,57.80
2018-03-23T15:57:51.418Z,58.00
2018-03-23T15:59:34.518Z,58.20
2018-03-23T16:01:17.653Z,58.50
2018-03-23T16:03:01.686Z,59.10
2018-03-23T16:04:45.646Z,59.50
2018-03-23T16:06:29.532Z,59.30
2018-03-23T16:08:12.688Z,59.10
2018-03-23T16:09:56.719Z,59.40
2018-03-23T16:11:40.613Z,59.70
2018-03-23T16:13:23.769Z,59.70
2018-03-23T16:15:07.670Z,60.30
2018-03-23T16:16:50.786Z,60.20
2018-03-23T16:18:34.036Z,60.50
2018-03-23T16:20:17.152Z,60.80
2018-03-23T16:22:01.142Z,61.30
2018-03-23T16:23:44.271Z,61.30
2018-03-23T16:25:27.544Z,61.50
2018-03-23T16:27:10.694Z,61.90
2018-03-23T16:28:53.801Z,62.00
2018-03-23T16:30:36.921Z,62.00
2018-03-23T16:32:20.033Z,62.80
2018-03-23T16:34:03.205Z,62.20
2018-03-23T16:35:47.137Z,62.70
2018-03-23T16:37:31.014Z,62.70
2018-03-23T16:39:14.406Z,62.80
2018-03-23T16:40:58.280Z,63.10
2018-03-23T16:42:41.396Z,63.10
2018-03-23T16:44:24.517Z,63.30
2018-03-23T16:46:07.734Z,63.30
2018-03-23T16:47:50.838Z,63.40
2018-03-23T16:49:33.970Z,63.40
2018-03-23T16:51:17.095Z,63.40
2018-03-23T16:53:00.247Z,63.40
2018-03-23T16:54:43.405Z,63.30
2018-03-23T16:56:26.529Z,63.50
2018-03-23T16:58:09.659Z,63.70
2018-03-23T16:59:52.802Z,63.70
2018-03-23T17:01:36.018Z,63.70
2018-03-23T17:03:19.230Z,63.90
2018-03-23T17:05:02.369Z,64.20
2018-03-23T17:06:46.288Z,64.60
2018-03-23T17:08:29.418Z,64.30
2018-03-23T17:10:12.625Z,64.80
2018-03-23T17:11:55.960Z,65.10
2018-03-23T17:13:39.080Z,65.30
2018-03-23T17:15:22.995Z,65.80
2018-03-23T17:17:06.102Z,65.80
2018-03-23T17:18:49.258Z,65.80
2018-03-23T17:20:33.144Z,66.10
2018-03-23T17:22:16.283Z,66.10
2018-03-23T17:23:59.430Z,66.30
2018-03-23T17:25:43.404Z,66.20
2018-03-23T17:27:26.560Z,66.20
2018-03-23T17:29:09.684Z,66.30
2018-03-23T17:30:53.590Z,66.40
2018-03-23T17:32:36.715Z,66.40
2018-03-23T17:34:19.872Z,66.60
2018-03-23T17:36:03.074Z,66.60
2018-03-23T17:37:46.980Z,66.80
2018-03-23T17:39:30.161Z,66.60
2018-03-23T17:41:13.337Z,66.60
2018-03-23T17:42:56.554Z,66.60
2018-03-23T17:44:39.772Z,66.50
2018-03-23T17:46:22.996Z,66.40
2018-03-23T17:48:06.908Z,66.40
2018-03-23T17:49:50.150Z,66.30
2018-03-23T17:51:34.047Z,66.10
2018-03-23T17:53:17.169Z,66.10
2018-03-23T17:55:00.305Z,66.20
2018-03-23T17:56:43.418Z,66.30
2018-03-23T17:58:26.552Z,66.50
2018-03-23T18:00:10.489Z,66.60
2018-03-23T18:01:53.614Z,66.60
2018-03-23T18:03:37.501Z,66.20
2018-03-23T18:05:20.630Z,66.20
2018-03-23T18:07:03.785Z,66.20
2018-03-23T18:08:47.699Z,66.10
2018-03-23T18:10:30.826Z,66.10
2018-03-23T18:12:14.733Z,66.10
2018-03-23T18:13:57.896Z,66.10
2018-03-23T18:15:41.035Z,66.00
2018-03-23T18:17:24.145Z,66.00
2018-03-23T18:19:07.312Z,66.10
2018-03-23T18:20:50.680Z,66.00
2018-03-23T18:22:33.845Z,66.10
2018-03-23T18:24:16.956Z,66.20
2018-03-23T18:26:00.187Z,66.50
2018-03-23T18:27:44.090Z,66.80
2018-03-23T18:29:27.223Z,66.70
2018-03-23T18:31:10.391Z,66.80
2018-03-23T18:32:53.518Z,67.00
2018-03-23T18:34:36.624Z,67.10
2018-03-23T18:36:19.753Z,67.10
2018-03-23T18:38:02.924Z,67.30
2018-03-23T18:39:46.038Z,67.30
2018-03-23T18:41:29.304Z,68.00
2018-03-23T18:43:12.426Z,67.10
2018-03-23T18:44:55.571Z,67.00
2018-03-23T18:46:38.709Z,67.00
2018-03-23T18:48:21.931Z,66.90
2018-03-23T18:50:05.140Z,66.80
2018-03-23T18:51:48.282Z,67.70
2018-03-23T18:53:32.206Z,66.80
2018-03-23T18:55:16.126Z,66.70
2018-03-23T18:56:59.246Z,66.60
2018-03-23T18:58:42.357Z,66.70
2018-03-23T19:00:25.478Z,66.90
2018-03-23T19:02:08.602Z,66.90
2018-03-23T19:03:51.712Z,66.90
2018-03-23T19:05:34.878Z,66.80
2018-03-23T19:07:17.999Z,66.80
2018-03-23T19:09:01.122Z,66.70
2018-03-23T19:10:44.252Z,66.70
2018-03-23T19:12:27.378Z,66.70
2018-03-23T19:14:10.543Z,66.80
2018-03-23T19:15:54.455Z,66.80
2018-03-23T19:17:37.575Z,66.80
2018-03-23T19:19:20.759Z,66.80
2018-03-23T19:21:03.948Z,66.80
2018-03-23T19:22:47.086Z,66.90
2018-03-23T19:24:30.204Z,66.90
2018-03-23T19:26:13.352Z,66.90
2018-03-23T19:27:56.483Z,66.90
2018-03-23T19:29:39.613Z,67.00
2018-03-23T19:31:23.531Z,67.20
2018-03-23T19:33:06.659Z,68.00
2018-03-23T19:34:50.553Z,67.00
2018-03-23T19:36:33.916Z,66.90
2018-03-23T19:38:17.854Z,67.10
2018-03-23T19:40:01.734Z,66.90
2018-03-23T19:41:44.889Z,66.90
2018-03-23T19:43:28.026Z,66.60
2018-03-23T19:45:11.951Z,66.80
2018-03-23T19:46:55.069Z,66.80
2018-03-23T19:48:38.981Z,67.00
2018-03-23T19:50:22.095Z,67.00
2018-03-23T19:52:05.307Z,66.90
2018-03-23T19:53:48.435Z,66.90
2018-03-23T19:55:31.676Z,67.00
2018-03-23T19:57:15.662Z,67.10
2018-03-23T19:58:58.764Z,67.00
2018-03-23T20:00:41.915Z,67.00
2018-03-23T20:02:25.133Z,67.10
2018-03-23T20:04:08.281Z,67.20
2018-03-23T20:05:52.368Z,67.60
2018-03-23T20:07:35.526Z,67.50
2018-03-23T20:09:18.648Z,67.50
2018-03-23T20:11:02.558Z,67.60
2018-03-23T20:12:45.782Z,67.50
2018-03-23T20:14:28.963Z,67.60
2018-03-23T20:16:12.152Z,67.80
2018-03-23T20:18:01.734Z,67.90
2018-03-23T20:19:44.857Z,67.80
2018-03-23T20:21:27.984Z,68.10
2018-03-23T20:23:11.117Z,68.20
2018-03-23T20:24:54.267Z,68.10
2018-03-23T20:26:38.174Z,68.50
2018-03-23T20:28:26.907Z,67.90
2018-03-23T20:30:10.038Z,68.00
2018-03-23T20:31:58.755Z,67.80
2018-03-23T20:33:41.949Z,67.80
2018-03-23T20:35:25.883Z,67.90
2018-03-23T20:37:09.801Z,68.10
2018-03-23T20:38:52.914Z,68.10
2018-03-23T20:40:36.864Z,68.20
2018-03-23T20:42:20.778Z,68.30
2018-03-23T20:44:04.710Z,68.20
2018-03-23T20:45:47.852Z,68.20
2018-03-23T20:47:31.785Z,68.50
2018-03-23T20:49:16.305Z,68.30
2018-03-23T20:50:59.417Z,68.40
2018-03-23T20:52:42.565Z,68.40
2018-03-23T20:54:26.465Z,68.40
2018-03-23T20:56:09.583Z,68.40
2018-03-23T20:57:52.716Z,68.30
2018-03-23T20:59:35.896Z,68.30
2018-03-23T21:01:19.046Z,68.80
2018-03-23T21:03:02.181Z,68.80
2018-03-23T21:04:46.070Z,68.40
2018-03-23T21:06:29.222Z,68.40
2018-03-23T21:08:12.393Z,68.40
2018-03-23T21:09:55.525Z,68.50
2018-03-23T21:11:38.668Z,68.60
2018-03-23T21:13:22.745Z,68.40
2018-03-23T21:15:05.897Z,68.30
2018-03-23T21:16:49.036Z,68.20
2018-03-23T21:18:32.256Z,68.20
2018-03-23T21:20:15.391Z,68.20
2018-03-23T21:21:59.309Z,68.50
2018-03-23T21:23:42.460Z,68.50
2018-03-23T21:25:26.381Z,68.50
2018-03-23T21:27:10.284Z,69.20
2018-03-23T21:28:53.448Z,68.40
2018-03-23T21:30:36.589Z,68.30
2018-03-23T21:32:20.137Z,68.20
2018-03-23T21:34:03.254Z,68.10
2018-03-23T21:35:46.404Z,68.00
2018-03-23T21:37:29.542Z,67.80
2018-03-23T21:39:12.782Z,67.80
2018-03-23T21:40:55.909Z,67.90
2018-03-23T21:42:39.073Z,67.70
2018-03-23T21:44:22.295Z,67.80
2018-03-23T21:46:06.213Z,67.60
2018-03-23T21:47:49.422Z,67.50
2018-03-23T21:49:32.533Z,67.60
2018-03-23T21:51:15.652Z,67.60
2018-03-23T21:52:58.786Z,67.40
2018-03-23T21:54:41.893Z,67.30
2018-03-23T21:56:25.261Z,67.20
2018-03-23T21:58:08.465Z,67.10
2018-03-23T21:59:52.340Z,67.10
2018-03-23T22:01:35.468Z,67.10
2018-03-23T22:03:18.714Z,67.00
2018-03-23T22:05:01.864Z,67.70
2018-03-23T22:06:44.982Z,67.50
2018-03-23T22:08:28.199Z,66.90
2018-03-23T22:10:11.308Z,66.90
2018-03-23T22:11:54.423Z,67.00
2018-03-23T22:13:37.553Z,67.70